createdAt,value
2018-02-04T00:00:12.438Z,14.00
2018-02-04T00:01:12.448Z,13.90
2018-02-04T00:02:12.469Z,13.70
2018-02-04T00:03:12.480Z,13.40
2018-02-04T00:04:12.502Z,13.70
2018-02-04T00:05:12.521Z,14.30
2018-02-04T00:06:12.532Z,14.10
2018-02-04T00:07:12.543Z,12.80
2018-02-04T00:08:12.565Z,13.50
2018-02-04T00:09:12.575Z,13.30
2018-02-04T00:10:12.597Z,13.00
2018-02-04T00:11:12.647Z,13.10
2018-02-04T00:12:12.626Z,13.70
2018-02-04T00:13:12.645Z,13.20
2018-02-04T00:14:12.661Z,12.30
2018-02-04T00:15:12.671Z,12.80
2018-02-04T00:16:12.689Z,12.60
2018-02-04T00:17:12.710Z,12.70
2018-02-04T00:18:12.725Z,12.60
2018-02-04T00:19:12.735Z,12.30
2018-02-04T00:20:12.751Z,12.40
2018-02-04T00:21:12.772Z,12.60
2018-02-04T00:22:12.789Z,12.60
2018-02-04T00:23:12.798Z,11.70
2018-02-04T00:24:12.814Z,12.10
2018-02-04T00:25:12.835Z,11.90
2018-02-04T00:26:12.846Z,11.90
2018-02-04T00:27:12.868Z,12.00
2018-02-04T00:28:12.885Z,11.90
2018-02-04T00:29:12.894Z,12.70
2018-02-04T00:30:12.910Z,12.10
2018-02-04T00:31:12.931Z,13.00
2018-02-04T00:32:12.948Z,13.30
2018-02-04T00:33:12.957Z,12.90
2018-02-04T00:34:12.979Z,12.70
2018-02-04T00:35:12.989Z,13.50
2018-02-04T00:36:13.008Z,13.70
2018-02-04T00:37:13.027Z,13.70
2018-02-04T00:38:13.043Z,13.00
2018-02-04T00:39:13.054Z,13.10
2018-02-04T00:40:13.070Z,12.80
2018-02-04T00:41:13.091Z,13.50
2018-02-04T00:42:13.106Z,13.40
2018-02-04T00:43:13.116Z,13.40
2018-02-04T00:44:13.132Z,13.50
2018-02-04T00:45:13.153Z,12.80
2018-02-04T00:46:13.170Z,12.60
2018-02-04T00:47:13.180Z,12.80
2018-02-04T00:48:13.196Z,12.60
2018-02-04T00:49:13.217Z,13.00
2018-02-04T00:50:13.227Z,12.60
2018-02-04T00:51:13.248Z,13.30
2018-02-04T00:52:13.259Z,13.00
2018-02-04T00:53:13.280Z,14.10
2018-02-04T00:54:13.290Z,12.20
2018-02-04T00:55:13.314Z,13.10
2018-02-04T00:56:13.323Z,12.90
2018-02-04T00:57:13.344Z,12.30
2018-02-04T00:58:13.353Z,12.60
2018-02-04T00:59:13.376Z,12.70
2018-02-04T01:00:13.385Z,13.60
2018-02-04T01:01:13.407Z,12.80
2018-02-04T01:02:13.418Z,11.80
2018-02-04T01:03:13.439Z,11.90
2018-02-04T01:04:13.449Z,11.30
2018-02-04T01:05:13.470Z,12.10
2018-02-04T01:06:13.486Z,10.70
2018-02-04T01:07:13.500Z,10.80
2018-02-04T01:08:13.518Z,12.00
2018-02-04T01:09:13.529Z,12.50
2018-02-04T01:10:13.552Z,11.50
2018-02-04T01:11:13.568Z,11.50
2018-02-04T01:12:13.581Z,11.70
2018-02-04T01:13:13.590Z,11.80
2018-02-04T01:14:13.611Z,12.40
2018-02-04T01:15:13.622Z,11.80
2018-02-04T01:16:13.643Z,11.20
2018-02-04T01:17:13.653Z,12.00
2018-02-04T01:18:13.674Z,12.40
2018-02-04T01:19:13.685Z,12.20
2018-02-04T01:20:13.701Z,12.60
2018-02-04T01:21:13.722Z,12.60
2018-02-04T01:22:13.732Z,11.90
2018-02-04T01:23:13.750Z,13.50
2018-02-04T01:24:13.764Z,13.60
2018-02-04T01:25:13.783Z,12.50
2018-02-04T01:26:13.800Z,12.80
2018-02-04T01:27:13.811Z,13.00
2018-02-04T01:28:13.827Z,13.70
2018-02-04T01:29:13.842Z,14.50
2018-02-04T01:30:13.859Z,14.00
2018-02-04T01:31:13.880Z,13.40
2018-02-04T01:32:13.896Z,14.50
2018-02-04T01:33:13.905Z,14.10
2018-02-04T01:34:13.921Z,14.10
2018-02-04T01:35:13.943Z,13.60
2018-02-04T01:36:13.958Z,14.30
2018-02-04T01:37:13.968Z,13.80
2018-02-04T01:38:13.990Z,14.00
2018-02-04T01:39:14.000Z,13.90
2018-02-04T01:40:14.022Z,14.40
2018-02-04T01:41:14.030Z,13.90
2018-02-04T01:42:14.053Z,14.40
2018-02-04T01:43:14.064Z,14.50
2018-02-04T01:44:14.079Z,14.00
2018-02-04T01:45:14.099Z,13.90
2018-02-04T01:46:14.116Z,14.70
2018-02-04T01:47:14.126Z,14.50
2018-02-04T01:48:14.142Z,14.10
2018-02-04T01:49:14.164Z,12.20
2018-02-04T01:50:14.179Z,12.40
2018-02-04T01:51:14.190Z,12.50
2018-02-04T01:52:14.208Z,12.60
2018-02-04T01:53:14.227Z,12.40
2018-02-04T01:54:14.241Z,12.20
2018-02-04T01:55:14.253Z,11.90
2018-02-04T01:56:14.269Z,12.30
2018-02-04T01:57:14.290Z,11.80
2018-02-04T01:58:14.306Z,13.50
2018-02-04T01:59:14.318Z,13.00
2018-02-04T02:00:14.341Z,11.60
2018-02-04T02:01:14.347Z,12.40
2018-02-04T02:02:14.370Z,12.60
2018-02-04T02:03:14.379Z,13.20
2018-02-04T02:04:14.402Z,12.30
2018-02-04T02:05:14.410Z,12.70
2018-02-04T02:06:14.435Z,12.80
2018-02-04T02:07:14.443Z,12.80
2018-02-04T02:08:14.466Z,11.40
2018-02-04T02:09:14.473Z,12.00
2018-02-04T02:10:14.489Z,11.00
2018-02-04T02:11:14.511Z,11.00
2018-02-04T02:12:14.521Z,10.40
2018-02-04T02:13:14.567Z,10.00
2018-02-04T02:14:14.553Z,10.60
2018-02-04T02:15:14.574Z,9.90
2018-02-04T02:16:14.585Z,8.80
2018-02-04T02:17:14.605Z,9.50
2018-02-04T02:18:14.615Z,8.30
2018-02-04T02:19:14.637Z,8.40
2018-02-04T02:20:14.648Z,8.50
2018-02-04T02:21:14.668Z,8.60
2018-02-04T02:22:14.678Z,8.70
2018-02-04T02:23:14.700Z,8.30
2018-02-04T02:24:14.711Z,7.90
2018-02-04T02:25:14.731Z,7.60
2018-02-04T02:26:14.747Z,8.30
2018-02-04T02:27:14.757Z,8.30
2018-02-04T02:28:14.773Z,8.10
2018-02-04T02:29:14.795Z,7.80
2018-02-04T02:30:14.810Z,8.70
2018-02-04T02:31:14.820Z,8.80
2018-02-04T02:32:14.837Z,8.90
2018-02-04T02:33:14.856Z,8.40
2018-02-04T02:34:14.871Z,8.10
2018-02-04T02:35:14.890Z,8.30
2018-02-04T02:36:14.906Z,8.10
2018-02-04T02:37:14.914Z,8.00
2018-02-04T02:38:14.932Z,7.70
2018-02-04T02:39:14.953Z,7.30
2018-02-04T02:40:14.969Z,7.90
2018-02-04T02:41:14.977Z,8.10
2018-02-04T02:42:14.996Z,8.30
2018-02-04T02:43:15.018Z,7.60
2018-02-04T02:44:15.030Z,8.20
2018-02-04T02:45:15.055Z,8.50
2018-02-04T02:46:15.057Z,7.90
2018-02-04T02:47:15.084Z,8.60
2018-02-04T02:48:15.095Z,8.60
2018-02-04T02:49:15.105Z,8.10
2018-02-04T02:50:15.126Z,7.80
2018-02-04T02:51:15.135Z,7.90
2018-02-04T02:52:15.154Z,8.20
2018-02-04T02:53:15.172Z,7.80
2018-02-04T02:54:15.194Z,7.10
2018-02-04T02:55:15.205Z,7.80
2018-02-04T02:56:15.220Z,7.60
2018-02-04T02:57:15.236Z,7.50
2018-02-04T02:58:15.251Z,8.40
2018-02-04T02:59:15.263Z,7.60
2018-02-04T03:00:15.278Z,7.60
2018-02-04T03:01:15.298Z,8.10
2018-02-04T03:02:15.316Z,7.90
2018-02-04T03:03:15.326Z,7.30
2018-02-04T03:04:15.343Z,7.00
2018-02-04T03:05:15.361Z,7.50
2018-02-04T03:06:15.379Z,6.80
2018-02-04T03:07:15.389Z,7.30
2018-02-04T03:08:15.411Z,7.20
2018-02-04T03:09:15.423Z,7.00
2018-02-04T03:10:15.442Z,7.20
2018-02-04T03:11:15.456Z,6.80
2018-02-04T03:12:15.474Z,7.00
2018-02-04T03:13:15.483Z,7.20
2018-02-04T03:14:15.505Z,7.20
2018-02-04T03:15:15.516Z,7.30
2018-02-04T03:16:15.538Z,7.60
2018-02-04T03:17:15.546Z,7.20
2018-02-04T03:18:15.569Z,6.70
2018-02-04T03:19:15.578Z,7.00
2018-02-04T03:20:15.601Z,7.10
2018-02-04T03:21:15.610Z,6.50
2018-02-04T03:22:15.626Z,6.90
2018-02-04T03:23:15.648Z,6.90
2018-02-04T03:24:15.657Z,7.80
2018-02-04T03:25:15.679Z,6.30
2018-02-04T03:26:15.693Z,6.80
2018-02-04T03:27:15.710Z,6.70
2018-02-04T03:28:15.722Z,7.00
2018-02-04T03:29:15.742Z,7.30
2018-02-04T03:30:15.753Z,7.40
2018-02-04T03:31:15.774Z,7.10
2018-02-04T03:32:15.784Z,7.10
2018-02-04T03:33:15.804Z,7.10
2018-02-04T03:34:15.815Z,6.90
2018-02-04T03:35:15.836Z,6.80
2018-02-04T03:36:15.848Z,6.70
2018-02-04T03:37:15.867Z,6.60
2018-02-04T03:38:15.878Z,6.50
2018-02-04T03:39:15.900Z,6.70
2018-02-04T03:40:15.916Z,6.80
2018-02-04T03:41:15.926Z,6.40
2018-02-04T03:42:15.943Z,6.50
2018-02-04T03:43:15.964Z,5.90
2018-02-04T03:44:15.978Z,6.60
2018-02-04T03:45:15.989Z,5.90
2018-02-04T03:46:16.010Z,6.40
2018-02-04T03:47:16.027Z,6.20
2018-02-04T03:48:16.037Z,6.10
2018-02-04T03:49:16.059Z,6.10
2018-02-04T03:50:16.068Z,6.30
2018-02-04T03:51:16.091Z,6.20
2018-02-04T03:52:16.101Z,5.80
2018-02-04T03:53:16.116Z,5.50
2018-02-04T03:54:16.138Z,5.50
2018-02-04T03:55:16.148Z,4.90
2018-02-04T03:56:16.164Z,5.40
2018-02-04T03:57:16.188Z,5.40
2018-02-04T03:58:16.202Z,5.10
2018-02-04T03:59:16.211Z,5.50
2018-02-04T04:00:16.232Z,5.80
2018-02-04T04:01:16.249Z,5.70
2018-02-04T04:02:16.258Z,5.60
2018-02-04T04:03:16.275Z,5.20
2018-02-04T04:04:16.292Z,5.50
2018-02-04T04:05:16.312Z,5.00
2018-02-04T04:06:16.328Z,4.70
2018-02-04T04:07:16.338Z,5.10
2018-02-04T04:08:16.355Z,5.50
2018-02-04T04:09:16.369Z,5.00
2018-02-04T04:10:16.388Z,5.20
2018-02-04T04:11:16.408Z,5.80
2018-02-04T04:12:16.419Z,5.10
2018-02-04T04:13:16.439Z,5.50
2018-02-04T04:14:16.450Z,5.50
2018-02-04T04:15:16.470Z,5.40
2018-02-04T04:16:16.482Z,5.40
2018-02-04T04:17:16.502Z,5.10
2018-02-04T04:18:16.517Z,4.90
2018-02-04T04:19:16.530Z,5.00
2018-02-04T04:20:16.553Z,5.10
2018-02-04T04:21:16.560Z,5.50
2018-02-04T04:22:16.582Z,5.10
2018-02-04T04:23:16.600Z,5.20
2018-02-04T04:24:16.615Z,5.10
2018-02-04T04:25:16.631Z,4.70
2018-02-04T04:26:16.645Z,4.80
2018-02-04T04:27:16.656Z,4.40
2018-02-04T04:28:16.679Z,5.20
2018-02-04T04:29:16.689Z,4.60
2018-02-04T04:30:16.711Z,4.40
2018-02-04T04:31:16.721Z,4.60
2018-02-04T04:32:16.742Z,4.50
2018-02-04T04:33:16.752Z,5.10
2018-02-04T04:34:16.774Z,5.00
2018-02-04T04:35:16.789Z,5.00
2018-02-04T04:36:16.801Z,4.80
2018-02-04T04:37:16.820Z,5.10
2018-02-04T04:38:16.833Z,4.30
2018-02-04T04:39:16.854Z,4.80
2018-02-04T04:40:16.864Z,5.10
2018-02-04T04:41:16.883Z,4.90
2018-02-04T04:42:16.896Z,5.20
2018-02-04T04:43:16.917Z,5.30
2018-02-04T04:44:16.933Z,5.10
2018-02-04T04:45:16.943Z,5.00
2018-02-04T04:46:16.959Z,4.80
2018-02-04T04:47:16.981Z,5.30
2018-02-04T04:48:16.998Z,5.70
2018-02-04T04:49:17.008Z,4.90
2018-02-04T04:50:17.023Z,5.10
2018-02-04T04:51:17.039Z,5.10
2018-02-04T04:52:17.055Z,5.30
2018-02-04T04:53:17.076Z,5.40
2018-02-04T04:54:17.092Z,4.80
2018-02-04T04:55:17.104Z,4.90
2018-02-04T04:56:17.124Z,5.10
2018-02-04T04:57:17.140Z,5.20
2018-02-04T04:58:17.156Z,5.20
2018-02-04T04:59:17.165Z,5.50
2018-02-04T05:00:17.182Z,5.60
2018-02-04T05:01:17.203Z,5.50
2018-02-04T05:02:17.218Z,6.10
2018-02-04T05:03:17.234Z,6.20
2018-02-04T05:04:17.245Z,5.90
2018-02-04T05:05:17.266Z,6.20
2018-02-04T05:06:17.282Z,6.30
2018-02-04T05:07:17.298Z,6.20
2018-02-04T05:08:17.312Z,5.60
2018-02-04T05:09:17.322Z,6.30
2018-02-04T05:10:17.339Z,5.80
2018-02-04T05:11:17.360Z,5.80
2018-02-04T05:12:17.372Z,6.10
2018-02-04T05:13:17.386Z,6.20
2018-02-04T05:14:17.402Z,6.00
2018-02-04T05:15:17.423Z,6.40
2018-02-04T05:16:17.434Z,6.30
2018-02-04T05:17:17.480Z,5.90
2018-02-04T05:18:17.465Z,6.20
2018-02-04T05:19:17.487Z,6.40
2018-02-04T05:20:17.496Z,6.70
2018-02-04T05:21:17.518Z,6.00
2018-02-04T05:22:17.532Z,6.30
2018-02-04T05:23:17.549Z,6.10
2018-02-04T05:24:17.561Z,6.20
2018-02-04T05:25:17.575Z,6.50
2018-02-04T05:26:17.591Z,6.00
2018-02-04T05:27:17.607Z,6.50
2018-02-04T05:28:17.623Z,6.10
2018-02-04T05:29:17.644Z,6.70
2018-02-04T05:30:17.659Z,6.60
2018-02-04T05:31:17.671Z,6.70
2018-02-04T05:32:17.691Z,6.70
2018-02-04T05:33:17.703Z,6.80
2018-02-04T05:34:17.723Z,7.60
2018-02-04T05:35:17.733Z,6.80
2018-02-04T05:36:17.755Z,6.80
2018-02-04T05:37:17.764Z,6.70
2018-02-04T05:38:17.787Z,6.60
2018-02-04T05:39:17.797Z,6.70
2018-02-04T05:40:17.815Z,6.50
2018-02-04T05:41:17.834Z,6.40
2018-02-04T05:42:17.853Z,6.70
2018-02-04T05:43:17.866Z,6.90
2018-02-04T05:44:17.883Z,7.00
2018-02-04T05:45:17.895Z,6.80
2018-02-04T05:46:17.913Z,6.70
2018-02-04T05:47:17.923Z,6.80
2018-02-04T05:48:17.938Z,6.60
2018-02-04T05:49:17.959Z,6.50
2018-02-04T05:50:17.975Z,7.10
2018-02-04T05:51:17.985Z,6.70
2018-02-04T05:52:18.002Z,6.60
2018-02-04T05:53:18.024Z,6.80
2018-02-04T05:54:18.033Z,6.70
2018-02-04T05:55:18.054Z,7.10
2018-02-04T05:56:18.064Z,7.10
2018-02-04T05:57:18.079Z,7.90
2018-02-04T05:58:18.101Z,6.90
2018-02-04T05:59:18.118Z,6.50
2018-02-04T06:00:18.133Z,7.70
2018-02-04T06:01:18.143Z,7.30
2018-02-04T06:02:18.159Z,6.90
2018-02-04T06:03:18.180Z,6.90
2018-02-04T06:04:18.197Z,7.00
2018-02-04T06:05:18.206Z,6.90
2018-02-04T06:06:18.222Z,7.10
2018-02-04T06:07:18.244Z,7.00
2018-02-04T06:08:18.260Z,6.90
2018-02-04T06:09:18.269Z,6.70
2018-02-04T06:10:18.291Z,6.80
2018-02-04T06:11:18.302Z,7.10
2018-02-04T06:12:18.319Z,7.00
2018-02-04T06:13:18.333Z,7.30
2018-02-04T06:14:18.348Z,7.30
2018-02-04T06:15:18.366Z,7.20
2018-02-04T06:16:18.387Z,7.20
2018-02-04T06:17:18.398Z,7.90
2018-02-04T06:18:18.421Z,7.10
2018-02-04T06:19:18.429Z,6.70
2018-02-04T06:20:18.451Z,6.90
2018-02-04T06:21:18.460Z,7.00
2018-02-04T06:22:18.482Z,7.30
2018-02-04T06:23:18.493Z,6.80
2018-02-04T06:24:18.514Z,6.90
2018-02-04T06:25:18.573Z,7.00
2018-02-04T06:26:18.540Z,6.50
2018-02-04T06:27:18.561Z,6.40
2018-02-04T06:28:18.576Z,7.00
2018-02-04T06:29:18.588Z,7.20
2018-02-04T06:30:18.609Z,7.50
2018-02-04T06:31:18.628Z,7.40
2018-02-04T06:32:18.641Z,7.80
2018-02-04T06:33:18.656Z,7.50
2018-02-04T06:34:18.666Z,6.80
2018-02-04T06:35:18.688Z,7.10
2018-02-04T06:36:18.698Z,7.30
2018-02-04T06:37:18.719Z,7.10
2018-02-04T06:38:18.732Z,7.00
2018-02-04T06:39:18.751Z,6.70
2018-02-04T06:40:18.761Z,7.10
2018-02-04T06:41:18.786Z,6.70
2018-02-04T06:42:18.792Z,7.10
2018-02-04T06:43:18.814Z,7.30
2018-02-04T06:44:18.824Z,8.10
2018-02-04T06:45:18.845Z,8.10
2018-02-04T06:46:18.861Z,7.20
2018-02-04T06:47:18.880Z,8.00
2018-02-04T06:48:18.887Z,7.60
2018-02-04T06:49:18.902Z,7.80
2018-02-04T06:50:18.921Z,8.60
2018-02-04T06:51:18.940Z,7.70
2018-02-04T06:52:18.956Z,7.50
2018-02-04T06:53:18.965Z,8.00
2018-02-04T06:54:18.980Z,7.90
2018-02-04T06:55:19.003Z,7.90
2018-02-04T06:56:19.018Z,7.70
2018-02-04T06:57:19.028Z,8.00
2018-02-04T06:58:19.043Z,7.60
2018-02-04T06:59:19.065Z,7.20
2018-02-04T07:00:19.079Z,7.50
2018-02-04T07:01:19.090Z,7.70
2018-02-04T07:02:19.117Z,8.20
2018-02-04T07:03:19.127Z,7.50
2018-02-04T07:04:19.143Z,7.80
2018-02-04T07:05:19.153Z,7.60
2018-02-04T07:06:19.174Z,7.80
2018-02-04T07:07:19.185Z,7.80
2018-02-04T07:08:19.205Z,7.90
2018-02-04T07:09:19.215Z,7.90
2018-02-04T07:10:19.238Z,8.00
2018-02-04T07:11:19.247Z,8.00
2018-02-04T07:12:19.269Z,8.30
2018-02-04T07:13:19.278Z,7.70
2018-02-04T07:14:19.300Z,8.10
2018-02-04T07:15:19.310Z,8.10
2018-02-04T07:16:19.325Z,8.10
2018-02-04T07:17:19.341Z,7.90
2018-02-04T07:18:19.356Z,8.30
2018-02-04T07:19:19.373Z,7.90
2018-02-04T07:20:19.395Z,7.30
2018-02-04T07:21:19.403Z,7.50
2018-02-04T07:22:19.419Z,7.70
2018-02-04T07:23:19.440Z,7.30
2018-02-04T07:24:19.451Z,7.30
2018-02-04T07:25:19.471Z,8.00
2018-02-04T07:26:19.482Z,8.60
2018-02-04T07:27:19.504Z,8.00
2018-02-04T07:28:19.569Z,7.80
2018-02-04T07:29:19.536Z,8.20
2018-02-04T07:30:19.550Z,7.80
2018-02-04T07:31:19.567Z,7.80
2018-02-04T07:32:19.583Z,7.90
2018-02-04T07:33:19.593Z,8.20
2018-02-04T07:34:19.614Z,8.00
2018-02-04T07:35:19.632Z,7.80
2018-02-04T07:36:19.647Z,8.60
2018-02-04T07:37:19.662Z,7.80
2018-02-04T07:38:19.673Z,7.50
2018-02-04T07:39:19.696Z,8.30
2018-02-04T07:40:19.713Z,8.10
2018-02-04T07:41:19.719Z,7.60
2018-02-04T07:42:19.736Z,8.00
2018-02-04T07:43:19.757Z,7.60
2018-02-04T07:44:19.773Z,7.50
2018-02-04T07:45:19.783Z,7.80
2018-02-04T07:46:19.799Z,8.30
2018-02-04T07:47:19.862Z,7.60
2018-02-04T07:48:19.837Z,8.50
2018-02-04T07:49:19.849Z,8.00
2018-02-04T07:50:19.868Z,8.00
2018-02-04T07:51:19.883Z,8.30
2018-02-04T07:52:19.900Z,8.60
2018-02-04T07:53:19.909Z,8.70
2018-02-04T07:54:19.931Z,8.60
2018-02-04T07:55:19.941Z,7.80
2018-02-04T07:56:19.958Z,8.60
2018-02-04T07:57:19.979Z,9.00
2018-02-04T07:58:19.994Z,8.90
2018-02-04T07:59:20.005Z,8.20
2018-02-04T08:00:20.021Z,8.70
2018-02-04T08:01:20.042Z,8.60
2018-02-04T08:02:20.051Z,8.60
2018-02-04T08:03:20.073Z,9.50
2018-02-04T08:04:20.090Z,8.10
2018-02-04T08:05:20.099Z,8.70
2018-02-04T08:06:20.115Z,8.10
2018-02-04T08:07:20.136Z,8.10
2018-02-04T08:08:20.153Z,8.00
2018-02-04T08:09:20.163Z,7.60
2018-02-04T08:10:20.178Z,7.80
2018-02-04T08:11:20.202Z,7.70
2018-02-04T08:12:20.220Z,7.80
2018-02-04T08:13:20.227Z,8.30
2018-02-04T08:14:20.243Z,7.60
2018-02-04T08:15:20.264Z,8.30
2018-02-04T08:16:20.280Z,8.20
2018-02-04T08:17:20.290Z,7.30
2018-02-04T08:18:20.305Z,7.90
2018-02-04T08:19:20.328Z,7.80
2018-02-04T08:20:20.340Z,8.00
2018-02-04T08:21:20.358Z,7.60
2018-02-04T08:22:20.371Z,7.60
2018-02-04T08:23:20.391Z,8.60
2018-02-04T08:24:20.404Z,7.70
2018-02-04T08:25:20.421Z,7.80
2018-02-04T08:26:20.435Z,7.20
2018-02-04T08:27:20.455Z,7.40
2018-02-04T08:28:20.465Z,7.40
2018-02-04T08:29:20.486Z,7.20
2018-02-04T08:30:20.497Z,7.20
2018-02-04T08:31:20.519Z,6.40
2018-02-04T08:32:20.530Z,6.90
2018-02-04T08:33:20.550Z,7.30
2018-02-04T08:34:20.567Z,7.80
2018-02-04T08:35:20.577Z,7.20
2018-02-04T08:36:20.599Z,6.30
2018-02-04T08:37:20.610Z,6.80
2018-02-04T08:38:20.629Z,6.90
2018-02-04T08:39:20.641Z,6.80
2018-02-04T08:40:20.662Z,7.10
2018-02-04T08:41:20.674Z,7.00
2018-02-04T08:42:20.696Z,7.40
2018-02-04T08:43:20.705Z,6.40
2018-02-04T08:44:20.730Z,6.40
2018-02-04T08:45:20.739Z,6.50
2018-02-04T08:46:20.759Z,6.30
2018-02-04T08:47:20.771Z,6.90
2018-02-04T08:48:20.793Z,6.90
2018-02-04T08:49:20.802Z,6.30
2018-02-04T08:50:20.819Z,6.60
2018-02-04T08:51:20.840Z,7.30
2018-02-04T08:52:20.855Z,9.70
2018-02-04T08:53:20.867Z,10.00
2018-02-04T08:54:20.883Z,8.80
2018-02-04T08:55:20.903Z,7.90
2018-02-04T08:56:20.921Z,7.60
2018-02-04T08:57:20.929Z,7.90
2018-02-04T08:58:20.947Z,7.20
2018-02-04T08:59:20.973Z,7.10
2018-02-04T09:00:20.988Z,7.80
2018-02-04T09:01:20.996Z,7.30
2018-02-04T09:02:21.018Z,7.80
2018-02-04T09:03:21.035Z,7.60
2018-02-04T09:04:21.050Z,7.80
2018-02-04T09:05:21.061Z,8.60
2018-02-04T09:06:21.083Z,8.20
2018-02-04T09:07:21.093Z,8.00
2018-02-04T09:08:21.116Z,8.60
2018-02-04T09:09:21.126Z,8.30
2018-02-04T09:10:21.143Z,7.90
2018-02-04T09:11:21.164Z,9.00
2018-02-04T09:12:21.180Z,8.30
2018-02-04T09:13:21.191Z,9.20
2018-02-04T09:14:21.207Z,9.40
2018-02-04T09:15:21.229Z,9.40
2018-02-04T09:16:21.241Z,10.00
2018-02-04T09:17:21.260Z,9.70
2018-02-04T09:18:21.271Z,10.20
2018-02-04T09:19:21.299Z,10.60
2018-02-04T09:20:21.306Z,16.60
2018-02-04T09:21:21.326Z,10.60
2018-02-04T09:22:21.343Z,10.20
2018-02-04T09:23:21.353Z,10.20
2018-02-04T09:24:21.370Z,10.10
2018-02-04T09:25:21.392Z,10.80
2018-02-04T09:26:21.402Z,10.50
2018-02-04T09:27:21.425Z,11.80
2018-02-04T09:28:21.436Z,10.40
2018-02-04T09:29:21.457Z,10.10
2018-02-04T09:30:21.474Z,10.30
2018-02-04T09:31:21.484Z,9.80
2018-02-04T09:32:21.508Z,10.40
2018-02-04T09:33:21.516Z,9.90
2018-02-04T09:34:21.539Z,10.50
2018-02-04T09:35:21.551Z,10.60
2018-02-04T09:36:21.594Z,10.30
2018-02-04T09:37:21.582Z,11.20
2018-02-04T09:38:21.600Z,11.50
2018-02-04T09:39:21.622Z,10.30
2018-02-04T09:40:21.638Z,11.20
2018-02-04T09:41:21.700Z,10.90
2018-02-04T09:42:21.676Z,10.50
2018-02-04T09:43:21.681Z,10.50
2018-02-04T09:44:21.703Z,9.90
2018-02-04T09:45:21.713Z,10.50
2018-02-04T09:46:21.731Z,10.10
2018-02-04T09:47:21.753Z,10.00
2018-02-04T09:48:21.770Z,10.30
2018-02-04T09:49:21.784Z,10.80
2018-02-04T09:50:21.798Z,10.00
2018-02-04T09:51:21.818Z,9.90
2018-02-04T09:52:21.885Z,11.00
2018-02-04T09:53:21.849Z,9.70
2018-02-04T09:54:21.869Z,9.90
2018-02-04T09:55:21.881Z,9.80
2018-02-04T09:56:21.902Z,10.70
2018-02-04T09:57:21.917Z,11.10
2018-02-04T09:58:21.929Z,9.90
2018-02-04T09:59:21.953Z,10.30
2018-02-04T10:00:21.970Z,9.80
2018-02-04T10:01:21.986Z,10.80
2018-02-04T10:02:21.996Z,7.80
2018-02-04T10:03:22.019Z,8.60
2018-02-04T10:04:22.034Z,8.70
2018-02-04T10:05:22.053Z,8.80
2018-02-04T10:06:22.098Z,9.00
2018-02-04T10:07:22.086Z,8.50
2018-02-04T10:08:22.098Z,7.70
2018-02-04T10:09:22.120Z,7.20
2018-02-04T10:10:22.132Z,7.50
2018-02-04T10:11:22.156Z,6.90
2018-02-04T10:12:22.173Z,6.30
2018-02-04T10:13:22.189Z,6.00
2018-02-04T10:14:22.208Z,6.70
2018-02-04T10:15:22.225Z,6.80
2018-02-04T10:16:22.239Z,7.20
2018-02-04T10:17:22.262Z,5.60
2018-02-04T10:18:22.274Z,6.00
2018-02-04T10:19:22.301Z,6.00
2018-02-04T10:20:22.319Z,5.30
2018-02-04T10:21:22.331Z,4.70
2018-02-04T10:22:22.352Z,5.10
2018-02-04T10:23:22.378Z,5.50
2018-02-04T10:24:22.400Z,5.20
2018-02-04T10:25:22.431Z,5.00
2018-02-04T10:26:22.434Z,5.10
2018-02-04T10:27:22.459Z,5.10
2018-02-04T10:28:22.476Z,5.00
2018-02-04T10:29:22.495Z,9.90
2018-02-04T10:30:22.523Z,14.20
2018-02-04T10:31:22.546Z,8.70
2018-02-04T10:32:22.568Z,4.90
2018-02-04T10:33:22.584Z,4.70
2018-02-04T10:34:22.610Z,5.50
2018-02-04T10:35:22.636Z,4.90
2018-02-04T10:36:22.659Z,4.80
2018-02-04T10:37:22.675Z,4.80
2018-02-04T10:38:22.699Z,4.80
2018-02-04T10:39:22.726Z,5.20
2018-02-04T10:40:22.750Z,4.90
2018-02-04T10:41:22.766Z,4.90
2018-02-04T10:42:22.788Z,5.90
2018-02-04T10:43:22.818Z,5.20
2018-02-04T10:44:22.833Z,5.40
2018-02-04T10:45:22.860Z,4.90
2018-02-04T10:46:22.883Z,4.50
2018-02-04T10:47:22.906Z,4.70
2018-02-04T10:48:22.922Z,4.30
2018-02-04T10:49:22.946Z,4.60
2018-02-04T10:50:22.975Z,4.60
2018-02-04T10:51:22.986Z,4.40
2018-02-04T10:52:23.013Z,4.70
2018-02-04T10:53:23.028Z,4.70
2018-02-04T10:54:23.054Z,4.50
2018-02-04T10:55:23.070Z,4.50
2018-02-04T10:56:23.096Z,4.50
2018-02-04T10:57:23.112Z,4.30
2018-02-04T10:58:23.137Z,4.50
2018-02-04T10:59:23.152Z,4.70
2018-02-04T11:00:23.174Z,4.60
2018-02-04T11:01:23.194Z,4.80
2018-02-04T11:02:23.213Z,4.40
2018-02-04T11:03:23.235Z,5.50
2018-02-04T11:04:23.261Z,5.40
2018-02-04T11:05:23.275Z,5.00
2018-02-04T11:06:23.301Z,5.30
2018-02-04T11:07:23.315Z,6.10
2018-02-04T11:08:23.344Z,6.10
2018-02-04T11:09:23.355Z,6.30
2018-02-04T11:10:23.428Z,6.70
2018-02-04T11:11:23.394Z,7.10
2018-02-04T11:12:23.420Z,7.30
2018-02-04T11:13:23.433Z,7.40
2018-02-04T11:14:23.452Z,7.20
2018-02-04T11:15:23.476Z,7.60
2018-02-04T11:16:23.501Z,7.60
2018-02-04T11:17:23.516Z,7.00
2018-02-04T11:18:23.537Z,6.70
2018-02-04T11:19:23.599Z,6.30
2018-02-04T11:20:23.571Z,6.80
2018-02-04T11:21:23.596Z,6.80
2018-02-04T11:22:23.610Z,6.20
2018-02-04T11:23:23.637Z,6.60
2018-02-04T11:24:23.652Z,6.40
2018-02-04T11:25:23.676Z,6.50
2018-02-04T11:26:23.694Z,6.80
2018-02-04T11:27:23.719Z,6.40
2018-02-04T11:28:23.733Z,6.30
2018-02-04T11:29:23.757Z,6.50
2018-02-04T11:30:23.772Z,6.60
2018-02-04T11:31:23.798Z,6.80
2018-02-04T11:32:23.811Z,7.20
2018-02-04T11:33:23.831Z,7.00
2018-02-04T11:34:23.855Z,6.50
2018-02-04T11:35:23.876Z,6.30
2018-02-04T11:36:23.896Z,7.20
2018-02-04T11:37:23.909Z,6.60
2018-02-04T11:38:23.933Z,6.50
2018-02-04T11:39:23.947Z,7.30
2018-02-04T11:40:23.967Z,7.70
2018-02-04T11:41:23.990Z,7.60
2018-02-04T11:42:24.012Z,8.30
2018-02-04T11:43:24.023Z,8.50
2018-02-04T11:44:24.042Z,8.60
2018-02-04T11:45:24.064Z,8.60
2018-02-04T11:46:24.082Z,7.90
2018-02-04T11:47:24.119Z,8.20
2018-02-04T11:48:24.115Z,8.00
2018-02-04T11:49:24.142Z,8.50
2018-02-04T11:50:24.158Z,8.80
2018-02-04T11:51:24.171Z,9.40
2018-02-04T11:52:24.188Z,9.50
2018-02-04T11:53:24.205Z,9.90
2018-02-04T11:54:24.224Z,8.80
2018-02-04T11:55:24.249Z,8.80
2018-02-04T11:56:24.266Z,9.50
2018-02-04T11:57:24.277Z,9.20
2018-02-04T11:58:24.296Z,9.40
2018-02-04T11:59:24.367Z,9.90
2018-02-04T12:00:24.338Z,9.80
2018-02-04T12:01:24.348Z,8.60
2018-02-04T12:02:24.371Z,8.00
2018-02-04T12:03:24.382Z,9.20
2018-02-04T12:04:24.401Z,9.20
2018-02-04T12:05:24.425Z,9.10
2018-02-04T12:06:24.436Z,8.80
2018-02-04T12:07:24.453Z,9.90
2018-02-04T12:08:24.472Z,9.50
2018-02-04T12:09:24.488Z,8.70
2018-02-04T12:10:24.512Z,8.60
2018-02-04T12:11:24.524Z,8.20
2018-02-04T12:12:24.547Z,7.80
2018-02-04T12:13:24.557Z,8.70
2018-02-04T12:14:24.581Z,8.30
2018-02-04T12:15:24.593Z,12.40
2018-02-04T12:16:24.616Z,10.50
2018-02-04T12:17:24.628Z,8.40
2018-02-04T12:18:24.650Z,8.20
2018-02-04T12:19:24.668Z,7.90
2018-02-04T12:20:24.684Z,8.30
2018-02-04T12:21:24.696Z,8.50
2018-02-04T12:22:24.719Z,8.20
2018-02-04T12:23:24.732Z,8.30
2018-02-04T12:24:24.755Z,8.60
2018-02-04T12:25:24.766Z,9.20
2018-02-04T12:26:24.783Z,7.90
2018-02-04T12:27:24.866Z,8.70
2018-02-04T12:28:24.824Z,8.30
2018-02-04T12:29:24.836Z,8.50
2018-02-04T12:30:24.853Z,8.00
2018-02-04T12:31:24.876Z,8.50
2018-02-04T12:32:24.894Z,9.80
2018-02-04T12:33:24.905Z,9.30
2018-02-04T12:34:24.928Z,8.20
2018-02-04T12:35:24.938Z,8.20
2018-02-04T12:36:24.963Z,8.50
2018-02-04T12:37:24.973Z,7.50
2018-02-04T12:38:24.990Z,7.70
2018-02-04T12:39:25.014Z,7.70
2018-02-04T12:40:25.036Z,8.30
2018-02-04T12:41:25.041Z,8.30
2018-02-04T12:42:25.065Z,8.80
2018-02-04T12:43:25.082Z,8.80
2018-02-04T12:44:25.100Z,8.70
2018-02-04T12:45:25.111Z,8.90
2018-02-04T12:46:25.127Z,9.80
2018-02-04T12:47:25.151Z,10.80
2018-02-04T12:48:25.167Z,9.90
2018-02-04T12:49:25.178Z,10.60
2018-02-04T12:50:25.201Z,10.00
2018-02-04T12:51:25.212Z,10.60
2018-02-04T12:52:25.235Z,10.00
2018-02-04T12:53:25.246Z,10.30
2018-02-04T12:54:25.264Z,10.40
2018-02-04T12:55:25.286Z,11.30
2018-02-04T12:56:25.303Z,11.70
2018-02-04T12:57:25.313Z,10.60
2018-02-04T12:58:25.332Z,10.90
2018-02-04T12:59:25.385Z,11.20
2018-02-04T13:00:25.365Z,10.60
2018-02-04T13:01:25.387Z,10.60
2018-02-04T13:02:25.400Z,10.10
2018-02-04T13:03:25.422Z,11.30
2018-02-04T13:04:25.433Z,13.40
2018-02-04T13:05:25.455Z,24.80
2018-02-04T13:06:25.472Z,10.40
2018-02-04T13:07:25.484Z,10.80
2018-02-04T13:08:25.502Z,10.40
2018-02-04T13:09:25.524Z,10.70
2018-02-04T13:10:25.535Z,10.10
2018-02-04T13:11:25.558Z,10.20